Observation data for Knox City on 05/24/2020      Previous  Date  Next       Current Mesonet Observations  Soil Data  Daily Summary Page  Observations in Plain Language
KKN1 240500Z 02013G18KT 20/15 A2982 RMK A01 T01950151  RH  079%=      5-min Rain = 0
KKN1 240505Z 03017KT 20/15 A2979 RMK A01 T01980147  RH  076%=      5-min Rain = 0
KKN1 240510Z 02015G22KT 20/15 A2979 RMK A01 T02000146  RH  074%=      5-min Rain = 0
KKN1 240515Z 02012KT 20/15 A2979 RMK A01 T02000145  RH  074%=      5-min Rain = 0
KKN1 240520Z 03010G15KT 20/15 A298 RMK A01 T02010145  RH  074%=      5-min Rain = 0
KKN1 240525Z 04010KT 20/15 A298 RMK A01 T02020145  RH  073%=      5-min Rain = 0
KKN1 240530Z 05007KT 20/15 A2981 RMK A01 T02000147  RH  075%=      5-min Rain = 0
KKN1 240535Z 07006KT 20/15 A2981 RMK A01 T01970150  RH  078%=      5-min Rain = 0
KKN1 240540Z 06006KT 20/15 A298 RMK A01 T01950153  RH  080%=      5-min Rain = 0
KKN1 240545Z 05008KT 19/15 A2979 RMK A01 T01940153  RH  080%=      5-min Rain = 0
KKN1 240550Z 05010KT 20/15 A2979 RMK A01 T01970150  RH  077%=      5-min Rain = 0
KKN1 240555Z 05010KT 20/15 A2979 RMK A01 T01990149  RH  076%=      5-min Rain = 0
KKN1 240600Z 07010KT 20/15 A2979 RMK A01 T01990150  RH  077%=      5-min Rain = 0
KKN1 240605Z 06010KT 20/15 A2978 RMK A01 T02000150  RH  076%=      5-min Rain = 0
KKN1 240610Z 06010KT 20/15 A2979 RMK A01 T02000148  RH  075%=      5-min Rain = 0
KKN1 240615Z 07010KT 20/15 A2979 RMK A01 T02020146  RH  073%=      5-min Rain = 0
KKN1 240620Z 07009KT 20/15 A2979 RMK A01 T02020146  RH  073%=      5-min Rain = 0
KKN1 240625Z 09009KT 20/15 A2979 RMK A01 T02000145  RH  074%=      5-min Rain = 0
KKN1 240630Z 10010KT 20/15 A298 RMK A01 T01950147  RH  077%=      5-min Rain = 0
KKN1 240635Z 11009KT 19/15 A298 RMK A01 T01930148  RH  079%=      5-min Rain = 0
KKN1 240640Z 12009KT 19/15 A298 RMK A01 T01910151  RH  081%=      5-min Rain = 0
KKN1 240645Z 13011G17KT 19/15 A2981 RMK A01 T01900152  RH  082%=      5-min Rain = 0
KKN1 240650Z 14010KT 19/15 A298 RMK A01 T01910152  RH  082%=      5-min Rain = 0
KKN1 240655Z 13012KT 19/15 A298 RMK A01 T01910153  RH  082%=      5-min Rain = 0
KKN1 240700Z 13010G16KT 19/15 A298 RMK A01 T01920152  RH  082%=      5-min Rain = 0
KKN1 240705Z 14008KT 19/15 A298 RMK A01 T01900153  RH  083%=      5-min Rain = 0
KKN1 240710Z 15007KT 19/15 A298 RMK A01 T01900154  RH  083%=      5-min Rain = 0
KKN1 240715Z 15006G11KT 19/16 A2979 RMK A01 T01880155  RH  085%=      5-min Rain = 0
KKN1 240720Z 15006G11KT 19/16 A2979 RMK A01 T01860155  RH  086%=      5-min Rain = 0
KKN1 240725Z 15008KT 19/16 A2979 RMK A01 T01870156  RH  086%=      5-min Rain = 0
KKN1 240730Z 15007KT 19/16 A2979 RMK A01 T01850157  RH  087%=      5-min Rain = 0
KKN1 240735Z 16007KT 19/16 A2979 RMK A01 T01850157  RH  087%=      5-min Rain = 0
KKN1 240740Z 16006KT 18/16 A2979 RMK A01 T01840157  RH  088%=      5-min Rain = 0
KKN1 240745Z 16006KT 18/16 A2979 RMK A01 T01830157  RH  089%=      5-min Rain = 0
KKN1 240750Z 18005KT 18/16 A2979 RMK A01 T01820158  RH  090%=      5-min Rain = 0
KKN1 240755Z 23004KT 18/16 A2979 RMK A01 T01820158  RH  090%=      5-min Rain = 0
KKN1 240800Z 25005KT 18/16 A298 RMK A01 T01820158  RH  090%=      5-min Rain = 0
KKN1 240805Z 25006KT 18/16 A298 RMK A01 T01810158  RH  090%=      5-min Rain = 0
KKN1 240810Z 24006KT 18/16 A298 RMK A01 T01810158  RH  090%=      5-min Rain = 0
KKN1 240815Z 22006KT 18/16 A298 RMK A01 T01820158  RH  090%=      5-min Rain = 0
KKN1 240820Z 20006KT 18/16 A298 RMK A01 T01810157  RH  090%=      5-min Rain = 0
KKN1 240825Z 19006KT 18/16 A2981 RMK A01 T01820157  RH  089%=      5-min Rain = 0
KKN1 240830Z 20004KT 18/16 A2981 RMK A01 T01820158  RH  090%=      5-min Rain = 0
KKN1 240835Z 21003KT 18/16 A2981 RMK A01 T01810158  RH  090%=      5-min Rain = 0
KKN1 240840Z 22002KT 18/16 A2981 RMK A01 T01810158  RH  091%=      5-min Rain = 0
KKN1 240845Z 22002KT 18/16 A2981 RMK A01 T01810158  RH  090%=      5-min Rain = 0
KKN1 240850Z 22002KT 18/16 A2982 RMK A01 T01820158  RH  090%=      5-min Rain = 0
KKN1 240855Z 21003KT 18/16 A2982 RMK A01 T01820159  RH  091%=      5-min Rain = 0
KKN1 240900Z 22003KT 18/16 A2982 RMK A01 T01820160  RH  091%=      5-min Rain = 0
KKN1 240905Z 21004KT 18/16 A2982 RMK A01 T01810160  RH  092%=      5-min Rain = 0
KKN1 240910Z 20005KT 18/16 A2982 RMK A01 T01810160  RH  092%=      5-min Rain = 0
KKN1 240915Z 21005KT 18/16 A2982 RMK A01 T01820161  RH  092%=      5-min Rain = 0
KKN1 240920Z 21005KT 18/16 A2982 RMK A01 T01820161  RH  092%=      5-min Rain = 0
KKN1 240925Z 21004KT 18/16 A2982 RMK A01 T01820162  RH  092%=      5-min Rain = 0
KKN1 240930Z 22003KT 18/16 A2982 RMK A01 T01810162  RH  093%=      5-min Rain = 0
KKN1 240935Z 20001KT 18/16 A2982 RMK A01 T01810162  RH  093%=      5-min Rain = 0
KKN1 240940Z 17002KT 18/16 A2982 RMK A01 T01810162  RH  093%=      5-min Rain = 0
KKN1 240945Z 19002KT 18/16 A2982 RMK A01 T01810162  RH  093%=      5-min Rain = 0
KKN1 240950Z 19003KT 18/16 A2982 RMK A01 T01800162  RH  094%=      5-min Rain = 0
KKN1 240955Z 19002KT 18/16 A2982 RMK A01 T01800163  RH  094%=      5-min Rain = 0
KKN1 241000Z 20002KT 18/16 A2982 RMK A01 T01800164  RH  095%=      5-min Rain = 0
KKN1 241005Z 21002KT 18/16 A2982 RMK A01 T01800164  RH  095%=      5-min Rain = 0
KKN1 241010Z 20003KT 18/16 A2982 RMK A01 T01790164  RH  095%=      5-min Rain = 0
KKN1 241015Z 20003KT 18/16 A2982 RMK A01 T01790164  RH  095%=      5-min Rain = 0
KKN1 241020Z 19003KT 18/16 A2982 RMK A01 T01790164  RH  096%=      5-min Rain = 0
KKN1 241025Z 18004KT 18/16 A2982 RMK A01 T01790164  RH  096%=      5-min Rain = 0
KKN1 241030Z 19005KT 18/16 A2982 RMK A01 T01780162  RH  095%=      5-min Rain = 0
KKN1 241035Z 19005KT 18/16 A2982 RMK A01 T01780162  RH  095%=      5-min Rain = 0
KKN1 241040Z 19006KT 18/16 A2982 RMK A01 T01790162  RH  094%=      5-min Rain = 0
KKN1 241045Z 19006KT 18/16 A2983 RMK A01 T01790162  RH  094%=      5-min Rain = 0
KKN1 241050Z 19006KT 18/16 A2983 RMK A01 T01790161  RH  094%=      5-min Rain = 0
KKN1 241055Z 18005KT 18/16 A2982 RMK A01 T01790161  RH  093%=      5-min Rain = 0
KKN1 241100Z 18006KT 18/16 A2982 RMK A01 T01790161  RH  093%=      5-min Rain = 0
KKN1 241105Z 18006KT 18/16 A2982 RMK A01 T01790160  RH  093%=      5-min Rain = 0
KKN1 241110Z 18005KT 18/16 A2982 RMK A01 T01790160  RH  093%=      5-min Rain = 0
KKN1 241115Z 18005KT 18/16 A2982 RMK A01 T01790160  RH  093%=      5-min Rain = 0
KKN1 241120Z 17005KT 18/16 A2982 RMK A01 T01790160  RH  093%=      5-min Rain = 0
KKN1 241125Z 17005KT 18/16 A2982 RMK A01 T01790160  RH  093%=      5-min Rain = 0
KKN1 241130Z 17005KT 18/16 A2982 RMK A01 T01790160  RH  093%=      5-min Rain = 0
KKN1 241135Z 17004KT 18/16 A2981 RMK A01 T01790161  RH  093%=      5-min Rain = 0
KKN1 241140Z 17004KT 18/16 A2981 RMK A01 T01790160  RH  093%=      5-min Rain = 0
KKN1 241145Z 16004KT 18/16 A2981 RMK A01 T01790161  RH  094%=      5-min Rain = 0
KKN1 241150Z 16005KT 18/16 A2981 RMK A01 T01790162  RH  094%=      5-min Rain = 0
KKN1 241155Z 17006KT 18/16 A2982 RMK A01 T01800163  RH  094%=      5-min Rain = 0
KKN1 241200Z 18005KT 18/16 A2982 RMK A01 T01810163  RH  093%=      5-min Rain = 0
KKN1 241205Z 18005KT 18/16 A2982 RMK A01 T01820164  RH  093%=      5-min Rain = 0
KKN1 241210Z 19004KT 18/16 A2982 RMK A01 T01830164  RH  093%=      5-min Rain = 0
KKN1 241215Z 19003KT 18/17 A2982 RMK A01 T01840165  RH  093%=      5-min Rain = 0
KKN1 241220Z 18004KT 19/17 A2982 RMK A01 T01860166  RH  093%=      5-min Rain = 0
KKN1 241225Z 16004KT 19/17 A2982 RMK A01 T01880167  RH  092%=      5-min Rain = 0
KKN1 241230Z 16006KT 19/17 A2983 RMK A01 T01900169  RH  092%=      5-min Rain = 0
KKN1 241235Z 16008KT 19/17 A2983 RMK A01 T01920168  RH  090%=      5-min Rain = 0
KKN1 241240Z 16007KT 20/17 A2983 RMK A01 T01950170  RH  090%=      5-min Rain = 0
KKN1 241245Z 16008KT 20/17 A2984 RMK A01 T01960171  RH  090%=      5-min Rain = 0
KKN1 241250Z 16009KT 20/17 A2984 RMK A01 T01980172  RH  089%=      5-min Rain = 0
KKN1 241255Z 16009KT 20/17 A2984 RMK A01 T02000174  RH  090%=      5-min Rain = 0
KKN1 241300Z 16010KT 20/17 A2984 RMK A01 T02000174  RH  090%=      5-min Rain = 0
KKN1 241305Z 16009KT 20/18 A2984 RMK A01 T02000175  RH  090%=      5-min Rain = 0
KKN1 241310Z 16010KT 20/18 A2984 RMK A01 T01990175  RH  090%=      5-min Rain = 0
KKN1 241315Z 16010KT 20/18 A2984 RMK A01 T01990175  RH  091%=      5-min Rain = 0
KKN1 241320Z 16011KT 20/18 A2984 RMK A01 T02020178  RH  091%=      5-min Rain = 0
KKN1 241325Z 17010G15KT 21/18 A2984 RMK A01 T02050179  RH  090%=      5-min Rain = 0
KKN1 241330Z 17011KT 21/18 A2984 RMK A01 T02090181  RH  089%=      5-min Rain = 0
KKN1 241335Z 17011G16KT 21/18 A2984 RMK A01 T02130183  RH  088%=      5-min Rain = 0
KKN1 241340Z 17011KT 22/18 A2984 RMK A01 T02160183  RH  086%=      5-min Rain = 0
KKN1 241345Z 17013KT 22/18 A2984 RMK A01 T02190183  RH  084%=      5-min Rain = 0
KKN1 241350Z 17014G19KT 22/18 A2984 RMK A01 T02210181  RH  082%=      5-min Rain = 0
KKN1 241355Z 17014G19KT 22/18 A2984 RMK A01 T02230180  RH  081%=      5-min Rain = 0
KKN1 241400Z 17015G20KT 22/18 A2984 RMK A01 T02240177  RH  079%=      5-min Rain = 0
KKN1 241405Z 17013KT 23/18 A2985 RMK A01 T02280180  RH  078%=      5-min Rain = 0
KKN1 241410Z 18014G19KT 23/18 A2985 RMK A01 T02300178  RH  076%=      5-min Rain = 0
KKN1 241415Z 18014G19KT 23/18 A2985 RMK A01 T02320177  RH  075%=      5-min Rain = 0
KKN1 241420Z 18013KT 24/18 A2985 RMK A01 T02370179  RH  074%=      5-min Rain = 0
KKN1 241425Z 18014G20KT 24/18 A2985 RMK A01 T02380177  RH  072%=      5-min Rain = 0
KKN1 241430Z 18015KT 24/18 A2985 RMK A01 T02400176  RH  071%=      5-min Rain = 0
KKN1 241435Z 18013KT 24/18 A2984 RMK A01 T02430176  RH  069%=      5-min Rain = 0
KKN1 241440Z 19014G19KT 25/18 A2984 RMK A01 T02480177  RH  068%=      5-min Rain = 0
KKN1 241445Z 18013G18KT 25/18 A2984 RMK A01 T02490175  RH  067%=      5-min Rain = 0
KKN1 241450Z 18014G20KT 25/17 A2984 RMK A01 T02500172  RH  065%=      5-min Rain = 0
KKN1 241455Z 18012G17KT 25/17 A2984 RMK A01 T02530173  RH  065%=      5-min Rain = 0
KKN1 241500Z 18012G19KT 26/18 A2984 RMK A01 T02570175  RH  064%=      5-min Rain = 0
KKN1 241505Z 18013KT 26/17 A2984 RMK A01 T02580172  RH  062%=      5-min Rain = 0
KKN1 241510Z 18012KT 26/17 A2984 RMK A01 T02580174  RH  063%=      5-min Rain = 0
KKN1 241515Z 18013KT 26/17 A2984 RMK A01 T02630171  RH  060%=      5-min Rain = 0
KKN1 241520Z 18015G23KT 26/17 A2984 RMK A01 T02630169  RH  059%=      5-min Rain = 0
KKN1 241525Z 18015G20KT 27/17 A2984 RMK A01 T02650168  RH  058%=      5-min Rain = 0
KKN1 241530Z 18014G20KT 27/17 A2983 RMK A01 T02700169  RH  057%=      5-min Rain = 0
KKN1 241535Z 18017G22KT 27/16 A2983 RMK A01 T02670163  RH  055%=      5-min Rain = 0
KKN1 241540Z 18019KT 27/16 A2983 RMK A01 T02690161  RH  054%=      5-min Rain = 0
KKN1 241545Z 19018G25KT 27/16 A2983 RMK A01 T02710161  RH  054%=      5-min Rain = 0
KKN1 241550Z 20018G25KT 28/16 A2983 RMK A01 T02760163  RH  053%=      5-min Rain = 0
KKN1 241555Z 19019G25KT 27/16 A2982 RMK A01 T02730162  RH  053%=      5-min Rain = 0
KKN1 241600Z 19019G27KT 27/16 A2982 RMK A01 T02740161  RH  053%=      5-min Rain = 0
KKN1 241605Z 18020G26KT 28/16 A2982 RMK A01 T02780162  RH  052%=      5-min Rain = 0
KKN1 241610Z 19018G24KT 28/16 A2982 RMK A01 T02790164  RH  052%=      5-min Rain = 0
KKN1 241615Z 19018KT 28/17 A2982 RMK A01 T02780165  RH  052%=      5-min Rain = 0
KKN1 241620Z 18016G22KT 28/17 A2982 RMK A01 T02820168  RH  053%=      5-min Rain = 0
KKN1 241625Z 18017G25KT 28/17 A2982 RMK A01 T02830167  RH  052%=      5-min Rain = 0
KKN1 241630Z 18018G24KT 28/17 A2982 RMK A01 T02840166  RH  051%=      5-min Rain = 0
KKN1 241635Z 17019G25KT 28/17 A2982 RMK A01 T02840167  RH  051%=      5-min Rain = 0
KKN1 241640Z 18017G25KT 29/17 A2982 RMK A01 T02880169  RH  051%=      5-min Rain = 0
KKN1 241645Z 19017G23KT 29/17 A2982 RMK A01 T02860168  RH  051%=      5-min Rain = 0
KKN1 241650Z 18016G22KT 29/17 A2982 RMK A01 T02910171  RH  051%=      5-min Rain = 0
KKN1 241655Z 17019G25KT 29/17 A2982 RMK A01 T02900166  RH  050%=      5-min Rain = 0
KKN1 241700Z 17019G24KT 29/17 A2982 RMK A01 T02880165  RH  050%=      5-min Rain = 0
KKN1 241705Z 18017G24KT 29/17 A2982 RMK A01 T02920168  RH  050%=      5-min Rain = 0
KKN1 241710Z 19018KT 29/17 A2982 RMK A01 T02940167  RH  049%=      5-min Rain = 0
KKN1 241715Z 18018G26KT 29/17 A2982 RMK A01 T02940165  RH  048%=      5-min Rain = 0
KKN1 241720Z 18017G23KT 29/17 A2982 RMK A01 T02940167  RH  049%=      5-min Rain = 0
KKN1 241725Z 18015G22KT 30/17 A2982 RMK A01 T02980170  RH  048%=      5-min Rain = 0
KKN1 241730Z 19017G26KT 30/17 A2982 RMK A01 T02970169  RH  048%=      5-min Rain = 0
KKN1 241735Z 18017G23KT 30/17 A2981 RMK A01 T02960170  RH  049%=      5-min Rain = 0
KKN1 241740Z 19017G22KT 30/17 A2981 RMK A01 T02990172  RH  049%=      5-min Rain = 0
KKN1 241745Z 19018G24KT 30/17 A2981 RMK A01 T02990172  RH  049%=      5-min Rain = 0
KKN1 241750Z 18016G21KT 30/18 A2981 RMK A01 T03010175  RH  049%=      5-min Rain = 0
KKN1 241755Z 18017G25KT 30/18 A2981 RMK A01 T03020178  RH  050%=      5-min Rain = 0
KKN1 241800Z 18019G26KT 30/18 A298 RMK A01 T03040177  RH  049%=      5-min Rain = 0
KKN1 241805Z 18016KT 30/18 A298 RMK A01 T03040178  RH  049%=      5-min Rain = 0
KKN1 241810Z 19017G23KT 31/18 A298 RMK A01 T03080179  RH  049%=      5-min Rain = 0
KKN1 241815Z 18017G22KT 31/18 A298 RMK A01 T03070179  RH  049%=      5-min Rain = 0
KKN1 241820Z 20017KT 31/18 A2979 RMK A01 T03080181  RH  049%=      5-min Rain = 0
KKN1 241825Z 18018G25KT 31/18 A2979 RMK A01 T03080179  RH  048%=      5-min Rain = 0
KKN1 241830Z 18017G24KT 31/18 A2979 RMK A01 T03080180  RH  049%=      5-min Rain = 0
KKN1 241835Z 18018G25KT 31/18 A2978 RMK A01 T03100179  RH  048%=      5-min Rain = 0
KKN1 241840Z 18018G24KT 31/18 A2978 RMK A01 T03100179  RH  048%=      5-min Rain = 0
KKN1 241845Z 19017G26KT 31/18 A2978 RMK A01 T03130181  RH  048%=      5-min Rain = 0
KKN1 241850Z 18018G23KT 31/18 A2978 RMK A01 T03130180  RH  048%=      5-min Rain = 0
KKN1 241855Z 18018G26KT 31/18 A2977 RMK A01 T03120179  RH  047%=      5-min Rain = 0
KKN1 241900Z 19018G28KT 31/18 A2977 RMK A01 T03120178  RH  047%=      5-min Rain = 0
KKN1 241905Z 18015G22KT 32/18 A2976 RMK A01 T03170184  RH  048%=      5-min Rain = 0
KKN1 241910Z 18016G22KT 32/18 A2976 RMK A01 T03210184  RH  047%=      5-min Rain = 0
KKN1 241915Z 18018KT 32/18 A2976 RMK A01 T03160181  RH  047%=      5-min Rain = 0
KKN1 241920Z 17018G30KT 32/18 A2975 RMK A01 T03170181  RH  047%=      5-min Rain = 0
KKN1 241925Z 18017G24KT 32/18 A2975 RMK A01 T03190183  RH  047%=      5-min Rain = 0
KKN1 241930Z 18016G22KT 32/18 A2975 RMK A01 T03210182  RH  046%=      5-min Rain = 0
KKN1 241935Z 18015G24KT 32/18 A2975 RMK A01 T03200181  RH  046%=      5-min Rain = 0
KKN1 241940Z 19016G22KT 32/18 A2974 RMK A01 T03200181  RH  046%=      5-min Rain = 0
KKN1 241945Z 19015G22KT 32/18 A2974 RMK A01 T03210181  RH  046%=      5-min Rain = 0
KKN1 241950Z 17015G22KT 33/18 A2974 RMK A01 T03250183  RH  045%=      5-min Rain = 0
KKN1 241955Z 17015G22KT 32/18 A2974 RMK A01 T03230183  RH  046%=      5-min Rain = 0
KKN1 242000Z 19016G23KT 32/18 A2974 RMK A01 T03220182  RH  046%=      5-min Rain = 0
KKN1 242005Z 18016G21KT 33/18 A2974 RMK A01 T03250184  RH  045%=      5-min Rain = 0
KKN1 242010Z 17014G22KT 33/18 A2973 RMK A01 T03260184  RH  045%=      5-min Rain = 0
KKN1 242015Z 17014G24KT 32/19 A2973 RMK A01 T03240185  RH  046%=      5-min Rain = 0
KKN1 242020Z 19016G22KT 32/18 A2973 RMK A01 T03220182  RH  046%=      5-min Rain = 0
KKN1 242025Z 18014G21KT 33/18 A2973 RMK A01 T03290182  RH  044%=      5-min Rain = 0
KKN1 242030Z 18013G19KT 33/18 A2973 RMK A01 T03320184  RH  044%=      5-min Rain = 0
KKN1 242035Z 20012G18KT 33/19 A2973 RMK A01 T03330185  RH  044%=      5-min Rain = 0
KKN1 242040Z 20013G19KT 33/18 A2973 RMK A01 T03340184  RH  043%=      5-min Rain = 0
KKN1 242045Z 19013G19KT 33/18 A2972 RMK A01 T03280183  RH  045%=      5-min Rain = 0
KKN1 242050Z 19012G18KT 33/18 A2972 RMK A01 T03320182  RH  043%=      5-min Rain = 0
KKN1 242055Z 20013G19KT 34/18 A2971 RMK A01 T03380183  RH  042%=      5-min Rain = 0
KKN1 242100Z 21017G22KT 33/18 A2971 RMK A01 T03340182  RH  043%=      5-min Rain = 0
KKN1 242105Z 21013KT 34/18 A2971 RMK A01 T03360183  RH  043%=      5-min Rain = 0
KKN1 242110Z 19013G18KT 34/18 A2971 RMK A01 T03380184  RH  042%=      5-min Rain = 0
KKN1 242115Z 19013G18KT 34/18 A2971 RMK A01 T03360179  RH  041%=      5-min Rain = 0
KKN1 242120Z 20014KT 34/18 A297 RMK A01 T03350179  RH  042%=      5-min Rain = 0
KKN1 242125Z 20011G16KT 34/18 A297 RMK A01 T03360183  RH  043%=      5-min Rain = 0
KKN1 242130Z 17011KT 33/19 A297 RMK A01 T03340185  RH  043%=      5-min Rain = 0
KKN1 242135Z 18013G20KT 33/18 A297 RMK A01 T03310181  RH  043%=      5-min Rain = 0
KKN1 242140Z 18008G14KT 33/18 A2969 RMK A01 T03280180  RH  044%=      5-min Rain = 0
KKN1 242145Z 20008KT 32/18 A2969 RMK A01 T03230180  RH  045%=      5-min Rain = 0
KKN1 242150Z 16010KT 34/18 A2969 RMK A01 T03360181  RH  042%=      5-min Rain = 0
KKN1 242155Z 17010KT 34/18 A2968 RMK A01 T03410182  RH  041%=      5-min Rain = 0
KKN1 242200Z 16010KT 34/18 A2968 RMK A01 T03380182  RH  042%=      5-min Rain = 0
KKN1 242205Z 15008G13KT 34/18 A2968 RMK A01 T03410183  RH  042%=      5-min Rain = 0
KKN1 242210Z 16009KT 34/18 A2967 RMK A01 T03430181  RH  040%=      5-min Rain = 0
KKN1 242215Z 15011G16KT 34/18 A2967 RMK A01 T03410180  RH  041%=      5-min Rain = 0
KKN1 242220Z 16009KT 33/18 A2967 RMK A01 T03300180  RH  043%=      5-min Rain = 0
KKN1 242225Z 15008G14KT 33/18 A2966 RMK A01 T03250179  RH  044%=      5-min Rain = 0
KKN1 242230Z 15008KT 33/18 A2966 RMK A01 T03260181  RH  044%=      5-min Rain = 0
KKN1 242235Z 15011G16KT 34/18 A2966 RMK A01 T03370181  RH  042%=      5-min Rain = 0
KKN1 242240Z 16010G15KT 34/18 A2965 RMK A01 T03380180  RH  041%=      5-min Rain = 0
KKN1 242245Z 16011G16KT 34/18 A2965 RMK A01 T03370181  RH  042%=      5-min Rain = 0
KKN1 242250Z 16009G15KT 34/18 A2965 RMK A01 T03370182  RH  042%=      5-min Rain = 0
KKN1 242255Z 13011G17KT 34/18 A2965 RMK A01 T03390182  RH  042%=      5-min Rain = 0
KKN1 242300Z 13013KT 33/18 A2965 RMK A01 T03300180  RH  043%=      5-min Rain = 0
KKN1 242305Z 15011G16KT 33/18 A2965 RMK A01 T03320181  RH  043%=      5-min Rain = 0
KKN1 242310Z 14012G17KT 33/18 A2965 RMK A01 T03340179  RH  042%=      5-min Rain = 0
KKN1 242315Z 14013KT 33/18 A2965 RMK A01 T03340179  RH  042%=      5-min Rain = 0
KKN1 242320Z 13013KT 34/18 A2965 RMK A01 T03350178  RH  041%=      5-min Rain = 0
KKN1 242325Z 14011G16KT 33/18 A2965 RMK A01 T03340179  RH  042%=      5-min Rain = 0
KKN1 242330Z 14011G16KT 33/18 A2964 RMK A01 T03340177  RH  041%=      5-min Rain = 0
KKN1 242335Z 14012G17KT 33/18 A2964 RMK A01 T03340177  RH  041%=      5-min Rain = 0
KKN1 242340Z 13013KT 33/17 A2964 RMK A01 T03300174  RH  042%=      5-min Rain = 0
KKN1 242345Z 15013G19KT 32/17 A2964 RMK A01 T03240173  RH  043%=      5-min Rain = 0
KKN1 242350Z 13011KT 32/17 A2964 RMK A01 T03210172  RH  043%=      5-min Rain = 0
KKN1 242355Z 14011KT 32/17 A2963 RMK A01 T03200169  RH  043%=      5-min Rain = 0
KKN1 250000Z 14012G17KT 32/17 A2963 RMK A01 T03180171  RH  044%=      5-min Rain = 0
KKN1 250005Z 13012KT 32/17 A2963 RMK A01 T03160173  RH  045%=      5-min Rain = 0
KKN1 250010Z 12013KT 32/17 A2962 RMK A01 T03150174  RH  045%=      5-min Rain = 0
KKN1 250015Z 12011G17KT 32/18 A2962 RMK A01 T03150175  RH  046%=      5-min Rain = 0
KKN1 250020Z 12010G15KT 31/18 A2962 RMK A01 T03130177  RH  047%=      5-min Rain = 0
KKN1 250025Z 12009KT 31/18 A2962 RMK A01 T03130177  RH  047%=      5-min Rain = 0
KKN1 250030Z 11013G35KT 31/18 A2963 RMK A01 T03120178  RH  047%=      5-min Rain = 0
KKN1 250035Z 11022G31KT 28/19 A2964 RMK A01 T02840188  RH  059%=      5-min Rain = 0
KKN1 250040Z 12024G35KT 27/19 A2964 RMK A01 T02660188  RH  066%=      5-min Rain = 0
KKN1 250045Z 12025G34KT 26/19 A2964 RMK A01 T02620188  RH  067%=      5-min Rain = 0
KKN1 250050Z 12021G28KT 26/19 A2964 RMK A01 T02590188  RH  069%=      5-min Rain = 0
KKN1 250055Z 13021G28KT 26/19 A2964 RMK A01 T02580188  RH  069%=      5-min Rain = 0
KKN1 250100Z 12019G25KT 26/19 A2964 RMK A01 T02570189  RH  070%=      5-min Rain = 0
KKN1 250105Z 12019G29KT 26/19 A2964 RMK A01 T02550188  RH  070%=      5-min Rain = 0
KKN1 250110Z 12016G24KT 25/19 A2964 RMK A01 T02530188  RH  071%=      5-min Rain = 0
KKN1 250115Z 12014G23KT 25/19 A2965 RMK A01 T02520187  RH  071%=      5-min Rain = 0
KKN1 250120Z 12016G22KT 25/19 A2966 RMK A01 T02500187  RH  072%=      5-min Rain = 0
KKN1 250125Z 11015G22KT 25/19 A2965 RMK A01 T02450187  RH  074%=      5-min Rain = 0
KKN1 250130Z 12015G21KT 24/19 A2965 RMK A01 T02410185  RH  075%=      5-min Rain = 0
KKN1 250135Z 12015G24KT 24/18 A2966 RMK A01 T02400183  RH  074%=      5-min Rain = 0
KKN1 250140Z 13012G17KT 24/18 A2967 RMK A01 T02390182  RH  074%=      5-min Rain = 0
KKN1 250145Z 13017G24KT 24/18 A2968 RMK A01 T02390180  RH  073%=      5-min Rain = 0
KKN1 250150Z 13015G20KT 24/18 A2968 RMK A01 T02380179  RH  073%=      5-min Rain = 0
KKN1 250155Z 12012KT 24/18 A2968 RMK A01 T02360179  RH  074%=      5-min Rain = 0
KKN1 250200Z 13010G17KT 24/18 A2969 RMK A01 T02360180  RH  074%=      5-min Rain = 0
KKN1 250205Z 13013G21KT 24/18 A2969 RMK A01 T02360181  RH  075%=      5-min Rain = 0
KKN1 250210Z 11014G23KT 23/18 A2967 RMK A01 T02340180  RH  076%=      5-min Rain = 0
KKN1 250215Z 11013G19KT 23/18 A2969 RMK A01 T02330180  RH  076%=      5-min Rain = 0
KKN1 250220Z 12012G17KT 23/18 A2973 RMK A01 T02330181  RH  077%=      5-min Rain = 0
KKN1 250225Z 13010KT 23/18 A2975 RMK A01 T02320182  RH  077%=      5-min Rain = 0
KKN1 250230Z 15008G14KT 23/18 A2978 RMK A01 T02320182  RH  078%=      5-min Rain = 0
KKN1 250235Z 19008G15KT 23/18 A298 RMK A01 T02320184  RH  079%=      5-min Rain = 0
KKN1 250240Z 28015G25KT 22/17 A2981 RMK A01 T02220174  RH  078%=      5-min Rain = 0
KKN1 250245Z 32016G22KT 20/16 A2982 RMK A01 T01950157  RH  083%=      5-min Rain = 0.01
KKN1 250250Z 31012KT 18/16 A2984 RMK A01 T01830160  RH  090%=      5-min Rain = 0.06
KKN1 250255Z 29009KT 18/16 A2984 RMK A01 T01800162  RH  094%=      5-min Rain = 0.07
KKN1 250300Z 27009KT 18/16 A2983 RMK A01 T01790163  RH  095%=      5-min Rain = 0.09
KKN1 250305Z 27011G17KT 18/16 A2982 RMK A01 T01770164  RH  096%=      5-min Rain = 0.09
KKN1 250310Z 29011G16KT 18/16 A2982 RMK A01 T01760164  RH  097%=      5-min Rain = 0.09
KKN1 250315Z 31008KT 18/16 A2982 RMK A01 T01760164  RH  097%=      5-min Rain = 0.05
KKN1 250320Z 03007KT 18/17 A2983 RMK A01 T01760165  RH  098%=      5-min Rain = 0.02
KKN1 250325Z 05007KT 18/17 A2983 RMK A01 T01770165  RH  098%=      5-min Rain = 0.01
KKN1 250330Z 02007KT 18/17 A2982 RMK A01 T01760165  RH  097%=      5-min Rain = 0
KKN1 250335Z 35007KT 18/16 A2982 RMK A01 T01770164  RH  097%=      5-min Rain = 0
KKN1 250340Z 35009KT 18/16 A2981 RMK A01 T01770164  RH  097%=      5-min Rain = 0
KKN1 250345Z 35010KT 18/16 A298 RMK A01 T01770164  RH  097%=      5-min Rain = 0.02
KKN1 250350Z 35009KT 18/16 A298 RMK A01 T01760164  RH  097%=      5-min Rain = 0.01
KKN1 250355Z 01008KT 18/17 A2981 RMK A01 T01770166  RH  098%=      5-min Rain = 0.01
KKN1 250400Z 02010KT 18/17 A2982 RMK A01 T01770166  RH  098%=      5-min Rain = 0.01
KKN1 250405Z 02008KT 18/17 A2982 RMK A01 T01770166  RH  098%=      5-min Rain = 0
KKN1 250410Z 02007KT 18/17 A2982 RMK A01 T01760166  RH  098%=      5-min Rain = 0
KKN1 250415Z 03007KT 18/17 A2982 RMK A01 T01770166  RH  098%=      5-min Rain = 0
KKN1 250420Z 04007KT 18/17 A2983 RMK A01 T01770166  RH  098%=      5-min Rain = 0
KKN1 250425Z 04009KT 18/17 A2983 RMK A01 T01780167  RH  098%=      5-min Rain = 0
KKN1 250430Z 04010KT 18/17 A2984 RMK A01 T01770166  RH  098%=      5-min Rain = 0.01
KKN1 250435Z 05011KT 18/17 A2984 RMK A01 T01770166  RH  098%=      5-min Rain = 0
KKN1 250440Z 05012G18KT 18/17 A2985 RMK A01 T01770166  RH  098%=      5-min Rain = 0
KKN1 250445Z 06014G21KT 18/17 A2986 RMK A01 T01770166  RH  098%=      5-min Rain = 0
KKN1 250450Z 07014KT 18/17 A2986 RMK A01 T01780166  RH  098%=      5-min Rain = 0
KKN1 250455Z 06015G21KT 18/17 A2987 RMK A01 T01770166  RH  097%=      5-min Rain = 0

Page generated in 0.0421 seconds.